sensor_id;sensor_type;location;lat;lon;timestamp;temperature;humidity
27226;DHT22;14732;51.074;3.788;2023-05-29T00:02:15;16.00;99.90
27226;DHT22;14732;51.074;3.788;2023-05-29T00:04:40;16.00;99.90
27226;DHT22;14732;51.074;3.788;2023-05-29T00:07:06;15.80;99.90
27226;DHT22;14732;51.074;3.788;2023-05-29T00:09:32;15.70;99.90
27226;DHT22;14732;51.074;3.788;2023-05-29T00:11:57;15.70;99.90
27226;DHT22;14732;51.074;3.788;2023-05-29T00:14:23;15.60;99.90
27226;DHT22;14732;51.074;3.788;2023-05-29T00:16:50;15.60;99.90
27226;DHT22;14732;51.074;3.788;2023-05-29T00:19:16;15.30;99.90
27226;DHT22;14732;51.074;3.788;2023-05-29T00:21:43;15.30;99.90
27226;DHT22;14732;51.074;3.788;2023-05-29T00:24:09;15.30;99.90
27226;DHT22;14732;51.074;3.788;2023-05-29T00:26:35;15.30;99.90
27226;DHT22;14732;51.074;3.788;2023-05-29T00:29:01;15.20;99.90
27226;DHT22;14732;51.074;3.788;2023-05-29T00:31:26;15.30;99.90
27226;DHT22;14732;51.074;3.788;2023-05-29T00:33:53;15.30;99.90
27226;DHT22;14732;51.074;3.788;2023-05-29T00:36:19;15.50;99.90
27226;DHT22;14732;51.074;3.788;2023-05-29T00:38:44;15.50;99.90
27226;DHT22;14732;51.074;3.788;2023-05-29T00:41:14;15.60;99.90
27226;DHT22;14732;51.074;3.788;2023-05-29T00:43:43;15.50;99.90
27226;DHT22;14732;51.074;3.788;2023-05-29T00:46:13;15.40;99.90
27226;DHT22;14732;51.074;3.788;2023-05-29T00:48:40;15.20;99.90
27226;DHT22;14732;51.074;3.788;2023-05-29T00:51:07;15.20;99.90
27226;DHT22;14732;51.074;3.788;2023-05-29T00:53:33;15.10;99.90
27226;DHT22;14732;51.074;3.788;2023-05-29T00:55:59;15.20;99.90
27226;DHT22;14732;51.074;3.788;2023-05-29T00:58:26;15.20;99.90
27226;DHT22;14732;51.074;3.788;2023-05-29T01:00:52;15.20;99.90
27226;DHT22;14732;51.074;3.788;2023-05-29T01:03:20;15.00;99.90
27226;DHT22;14732;51.074;3.788;2023-05-29T01:05:45;15.00;99.90
27226;DHT22;14732;51.074;3.788;2023-05-29T01:08:14;14.90;99.90
27226;DHT22;14732;51.074;3.788;2023-05-29T01:10:40;14.90;99.90
27226;DHT22;14732;51.074;3.788;2023-05-29T01:13:18;14.60;99.90
27226;DHT22;14732;51.074;3.788;2023-05-29T01:16:12;14.60;99.90
27226;DHT22;14732;51.074;3.788;2023-05-29T01:18:41;14.60;99.90
27226;DHT22;14732;51.074;3.788;2023-05-29T01:24:26;14.40;99.90
27226;DHT22;14732;51.074;3.788;2023-05-29T01:27:00;14.40;99.90
27226;DHT22;14732;51.074;3.788;2023-05-29T01:29:29;14.40;99.90
27226;DHT22;14732;51.074;3.788;2023-05-29T01:31:57;14.30;99.90
27226;DHT22;14732;51.074;3.788;2023-05-29T01:34:23;14.10;99.90
27226;DHT22;14732;51.074;3.788;2023-05-29T01:36:49;14.10;99.90
27226;DHT22;14732;51.074;3.788;2023-05-29T01:39:15;14.20;99.90
27226;DHT22;14732;51.074;3.788;2023-05-29T01:41:43;14.20;99.90
27226;DHT22;14732;51.074;3.788;2023-05-29T01:44:10;14.20;99.90
27226;DHT22;14732;51.074;3.788;2023-05-29T01:46:37;14.30;99.90
27226;DHT22;14732;51.074;3.788;2023-05-29T01:49:04;14.10;99.90
27226;DHT22;14732;51.074;3.788;2023-05-29T01:51:30;14.20;99.90
27226;DHT22;14732;51.074;3.788;2023-05-29T01:53:57;14.20;99.90
27226;DHT22;14732;51.074;3.788;2023-05-29T01:56:26;14.20;99.90
27226;DHT22;14732;51.074;3.788;2023-05-29T01:58:56;14.00;99.90
27226;DHT22;14732;51.074;3.788;2023-05-29T02:01:22;13.90;99.90
27226;DHT22;14732;51.074;3.788;2023-05-29T02:03:48;13.90;99.90
27226;DHT22;14732;51.074;3.788;2023-05-29T02:06:13;13.90;99.90
27226;DHT22;14732;51.074;3.788;2023-05-29T02:08:39;13.90;99.90
27226;DHT22;14732;51.074;3.788;2023-05-29T02:11:05;13.90;99.90
27226;DHT22;14732;51.074;3.788;2023-05-29T02:13:31;14.00;99.90
27226;DHT22;14732;51.074;3.788;2023-05-29T02:15:57;13.80;99.90
27226;DHT22;14732;51.074;3.788;2023-05-29T02:18:22;13.70;99.90
27226;DHT22;14732;51.074;3.788;2023-05-29T02:20:49;13.70;99.90
27226;DHT22;14732;51.074;3.788;2023-05-29T02:23:14;13.80;99.90
27226;DHT22;14732;51.074;3.788;2023-05-29T02:25:41;13.90;99.90
27226;DHT22;14732;51.074;3.788;2023-05-29T02:28:07;13.80;99.90
27226;DHT22;14732;51.074;3.788;2023-05-29T02:30:33;13.70;99.90
27226;DHT22;14732;51.074;3.788;2023-05-29T02:32:59;13.50;99.90
27226;DHT22;14732;51.074;3.788;2023-05-29T02:35:25;13.40;99.90
27226;DHT22;14732;51.074;3.788;2023-05-29T02:37:52;13.40;99.90
27226;DHT22;14732;51.074;3.788;2023-05-29T02:40:20;13.60;99.90
27226;DHT22;14732;51.074;3.788;2023-05-29T02:42:47;13.50;99.90
27226;DHT22;14732;51.074;3.788;2023-05-29T02:45:13;13.30;99.90
27226;DHT22;14732;51.074;3.788;2023-05-29T02:47:38;13.30;99.90
27226;DHT22;14732;51.074;3.788;2023-05-29T02:50:05;13.20;99.90
27226;DHT22;14732;51.074;3.788;2023-05-29T02:52:32;13.30;99.90
27226;DHT22;14732;51.074;3.788;2023-05-29T02:54:58;13.30;99.90
27226;DHT22;14732;51.074;3.788;2023-05-29T02:57:24;13.30;99.90
27226;DHT22;14732;51.074;3.788;2023-05-29T02:59:50;13.10;99.90
27226;DHT22;14732;51.074;3.788;2023-05-29T03:02:17;13.00;99.90
27226;DHT22;14732;51.074;3.788;2023-05-29T03:04:44;12.90;99.90
27226;DHT22;14732;51.074;3.788;2023-05-29T03:07:10;12.80;99.90
27226;DHT22;14732;51.074;3.788;2023-05-29T03:09:36;12.90;99.90
27226;DHT22;14732;51.074;3.788;2023-05-29T03:12:02;13.00;99.90
27226;DHT22;14732;51.074;3.788;2023-05-29T03:14:28;13.10;99.90
27226;DHT22;14732;51.074;3.788;2023-05-29T03:16:54;13.20;99.90
27226;DHT22;14732;51.074;3.788;2023-05-29T03:19:20;13.10;99.90
27226;DHT22;14732;51.074;3.788;2023-05-29T03:21:46;13.10;99.90
27226;DHT22;14732;51.074;3.788;2023-05-29T03:24:12;13.00;99.90
27226;DHT22;14732;51.074;3.788;2023-05-29T03:26:40;13.00;99.90
27226;DHT22;14732;51.074;3.788;2023-05-29T03:29:06;13.10;99.90
27226;DHT22;14732;51.074;3.788;2023-05-29T03:31:32;12.90;99.90
27226;DHT22;14732;51.074;3.788;2023-05-29T03:33:58;12.90;99.90
27226;DHT22;14732;51.074;3.788;2023-05-29T03:36:24;12.90;99.90
27226;DHT22;14732;51.074;3.788;2023-05-29T03:38:50;12.90;99.90
27226;DHT22;14732;51.074;3.788;2023-05-29T03:41:15;12.90;99.90
27226;DHT22;14732;51.074;3.788;2023-05-29T03:43:41;12.90;99.90
27226;DHT22;14732;51.074;3.788;2023-05-29T03:46:07;13.00;99.90
27226;DHT22;14732;51.074;3.788;2023-05-29T03:48:32;12.90;99.90
27226;DHT22;14732;51.074;3.788;2023-05-29T03:50:58;12.80;99.90
27226;DHT22;14732;51.074;3.788;2023-05-29T03:53:24;12.70;99.90
27226;DHT22;14732;51.074;3.788;2023-05-29T03:55:49;12.90;99.90
27226;DHT22;14732;51.074;3.788;2023-05-29T03:58:15;12.70;99.90
27226;DHT22;14732;51.074;3.788;2023-05-29T04:00:41;12.80;99.90
27226;DHT22;14732;51.074;3.788;2023-05-29T04:03:08;12.90;99.90
27226;DHT22;14732;51.074;3.788;2023-05-29T04:05:34;12.90;99.90
27226;DHT22;14732;51.074;3.788;2023-05-29T04:08:00;13.10;99.90
27226;DHT22;14732;51.074;3.788;2023-05-29T04:10:26;13.10;99.90
27226;DHT22;14732;51.074;3.788;2023-05-29T04:12:52;12.90;99.90
27226;DHT22;14732;51.074;3.788;2023-05-29T04:15:17;12.80;99.90
27226;DHT22;14732;51.074;3.788;2023-05-29T04:17:43;12.70;99.90
27226;DHT22;14732;51.074;3.788;2023-05-29T04:20:09;12.50;99.90
27226;DHT22;14732;51.074;3.788;2023-05-29T04:22:36;12.50;99.90
27226;DHT22;14732;51.074;3.788;2023-05-29T04:25:02;12.70;99.90
27226;DHT22;14732;51.074;3.788;2023-05-29T04:27:32;12.70;99.90
27226;DHT22;14732;51.074;3.788;2023-05-29T04:30:05;12.70;99.90
27226;DHT22;14732;51.074;3.788;2023-05-29T04:32:32;12.80;99.90
27226;DHT22;14732;51.074;3.788;2023-05-29T04:34:58;12.90;99.90
27226;DHT22;14732;51.074;3.788;2023-05-29T04:37:31;13.00;99.90
27226;DHT22;14732;51.074;3.788;2023-05-29T04:40:01;13.00;99.90
27226;DHT22;14732;51.074;3.788;2023-05-29T04:42:33;13.10;99.90
27226;DHT22;14732;51.074;3.788;2023-05-29T04:44:59;13.30;99.90
27226;DHT22;14732;51.074;3.788;2023-05-29T04:47:26;13.00;99.90
27226;DHT22;14732;51.074;3.788;2023-05-29T04:49:52;13.10;99.90
27226;DHT22;14732;51.074;3.788;2023-05-29T04:52:18;12.90;99.90
27226;DHT22;14732;51.074;3.788;2023-05-29T04:54:46;13.00;99.90
27226;DHT22;14732;51.074;3.788;2023-05-29T04:57:12;12.90;99.90
27226;DHT22;14732;51.074;3.788;2023-05-29T04:59:37;13.10;99.90
27226;DHT22;14732;51.074;3.788;2023-05-29T05:02:03;13.30;99.90
27226;DHT22;14732;51.074;3.788;2023-05-29T05:04:29;13.40;99.90
27226;DHT22;14732;51.074;3.788;2023-05-29T05:06:55;13.80;99.90
27226;DHT22;14732;51.074;3.788;2023-05-29T05:09:21;14.10;99.90
27226;DHT22;14732;51.074;3.788;2023-05-29T05:11:46;14.40;99.90
27226;DHT22;14732;51.074;3.788;2023-05-29T05:14:12;14.30;99.90
27226;DHT22;14732;51.074;3.788;2023-05-29T05:16:38;14.50;99.90
27226;DHT22;14732;51.074;3.788;2023-05-29T05:19:03;14.70;99.90
27226;DHT22;14732;51.074;3.788;2023-05-29T05:21:29;15.40;99.90
27226;DHT22;14732;51.074;3.788;2023-05-29T05:23:58;15.80;99.90
27226;DHT22;14732;51.074;3.788;2023-05-29T05:26:23;16.60;99.90
27226;DHT22;14732;51.074;3.788;2023-05-29T05:28:51;17.20;99.90
27226;DHT22;14732;51.074;3.788;2023-05-29T05:31:16;18.30;99.90
27226;DHT22;14732;51.074;3.788;2023-05-29T05:33:43;19.20;99.90
27226;DHT22;14732;51.074;3.788;2023-05-29T05:36:09;20.30;99.90
27226;DHT22;14732;51.074;3.788;2023-05-29T05:38:34;21.50;99.90
27226;DHT22;14732;51.074;3.788;2023-05-29T05:41:00;21.10;99.90
27226;DHT22;14732;51.074;3.788;2023-05-29T05:43:25;21.90;99.90
27226;DHT22;14732;51.074;3.788;2023-05-29T05:45:52;22.80;99.90
27226;DHT22;14732;51.074;3.788;2023-05-29T05:48:18;22.90;99.90
27226;DHT22;14732;51.074;3.788;2023-05-29T05:50:43;23.90;99.90
27226;DHT22;14732;51.074;3.788;2023-05-29T05:53:09;24.10;99.90
27226;DHT22;14732;51.074;3.788;2023-05-29T05:55:35;24.90;99.90
27226;DHT22;14732;51.074;3.788;2023-05-29T05:58:01;25.40;99.80
27226;DHT22;14732;51.074;3.788;2023-05-29T06:00:27;25.70;98.50
27226;DHT22;14732;51.074;3.788;2023-05-29T06:02:53;25.60;96.90
27226;DHT22;14732;51.074;3.788;2023-05-29T06:05:19;25.50;95.40
27226;DHT22;14732;51.074;3.788;2023-05-29T06:07:44;25.00;97.30
27226;DHT22;14732;51.074;3.788;2023-05-29T06:10:10;25.30;96.50
27226;DHT22;14732;51.074;3.788;2023-05-29T06:12:36;26.20;94.10
27226;DHT22;14732;51.074;3.788;2023-05-29T06:15:03;27.40;93.80
27226;DHT22;14732;51.074;3.788;2023-05-29T06:17:29;26.90;91.90
27226;DHT22;14732;51.074;3.788;2023-05-29T06:19:55;27.90;92.00
27226;DHT22;14732;51.074;3.788;2023-05-29T06:22:21;28.20;89.40
27226;DHT22;14732;51.074;3.788;2023-05-29T06:24:46;28.20;88.10
27226;DHT22;14732;51.074;3.788;2023-05-29T06:27:12;28.40;86.00
27226;DHT22;14732;51.074;3.788;2023-05-29T06:29:38;27.80;88.50
27226;DHT22;14732;51.074;3.788;2023-05-29T06:32:03;28.90;84.00
27226;DHT22;14732;51.074;3.788;2023-05-29T06:34:29;29.60;83.70
27226;DHT22;14732;51.074;3.788;2023-05-29T06:36:55;29.40;80.90
27226;DHT22;14732;51.074;3.788;2023-05-29T06:39:21;29.00;79.60
27226;DHT22;14732;51.074;3.788;2023-05-29T06:41:47;26.90;80.60
27226;DHT22;14732;51.074;3.788;2023-05-29T06:44:13;25.40;87.60
27226;DHT22;14732;51.074;3.788;2023-05-29T06:46:38;24.50;88.80
27226;DHT22;14732;51.074;3.788;2023-05-29T06:49:04;23.40;90.90
27226;DHT22;14732;51.074;3.788;2023-05-29T06:51:29;22.50;92.30
27226;DHT22;14732;51.074;3.788;2023-05-29T06:53:56;22.20;93.30
27226;DHT22;14732;51.074;3.788;2023-05-29T06:56:21;23.00;92.40
27226;DHT22;14732;51.074;3.788;2023-05-29T06:58:47;22.50;93.00
27226;DHT22;14732;51.074;3.788;2023-05-29T07:01:13;22.80;93.40
27226;DHT22;14732;51.074;3.788;2023-05-29T07:03:38;22.90;93.20
27226;DHT22;14732;51.074;3.788;2023-05-29T07:06:05;21.60;93.90
27226;DHT22;14732;51.074;3.788;2023-05-29T07:08:31;21.50;94.40
27226;DHT22;14732;51.074;3.788;2023-05-29T07:10:57;21.60;94.30
27226;DHT22;14732;51.074;3.788;2023-05-29T07:13:25;21.50;94.70
27226;DHT22;14732;51.074;3.788;2023-05-29T07:15:51;21.40;95.20
27226;DHT22;14732;51.074;3.788;2023-05-29T07:18:17;20.70;96.40
27226;DHT22;14732;51.074;3.788;2023-05-29T07:20:42;19.90;98.20
27226;DHT22;14732;51.074;3.788;2023-05-29T07:23:08;19.50;99.00
27226;DHT22;14732;51.074;3.788;2023-05-29T07:25:34;19.70;98.60
27226;DHT22;14732;51.074;3.788;2023-05-29T07:27:59;19.70;98.80
27226;DHT22;14732;51.074;3.788;2023-05-29T07:30:25;20.00;99.90
27226;DHT22;14732;51.074;3.788;2023-05-29T07:32:51;20.90;99.60
27226;DHT22;14732;51.074;3.788;2023-05-29T07:35:16;21.90;96.60
27226;DHT22;14732;51.074;3.788;2023-05-29T07:37:42;22.30;95.60
27226;DHT22;14732;51.074;3.788;2023-05-29T07:40:08;21.80;95.80
27226;DHT22;14732;51.074;3.788;2023-05-29T07:42:34;21.70;95.50
27226;DHT22;14732;51.074;3.788;2023-05-29T07:45:01;21.80;96.40
27226;DHT22;14732;51.074;3.788;2023-05-29T07:47:27;21.80;96.20
27226;DHT22;14732;51.074;3.788;2023-05-29T07:49:52;21.70;96.60
27226;DHT22;14732;51.074;3.788;2023-05-29T07:52:18;21.20;98.40
27226;DHT22;14732;51.074;3.788;2023-05-29T07:54:44;21.20;98.30
27226;DHT22;14732;51.074;3.788;2023-05-29T07:57:10;20.90;97.70
27226;DHT22;14732;51.074;3.788;2023-05-29T07:59:42;20.70;97.70
27226;DHT22;14732;51.074;3.788;2023-05-29T08:02:08;20.20;97.70
27226;DHT22;14732;51.074;3.788;2023-05-29T08:04:34;19.90;99.00
27226;DHT22;14732;51.074;3.788;2023-05-29T08:07:00;19.90;99.30
27226;DHT22;14732;51.074;3.788;2023-05-29T08:09:26;19.60;99.90
27226;DHT22;14732;51.074;3.788;2023-05-29T08:11:52;19.90;99.90
27226;DHT22;14732;51.074;3.788;2023-05-29T08:14:17;19.70;98.80
27226;DHT22;14732;51.074;3.788;2023-05-29T08:16:43;19.50;99.30
27226;DHT22;14732;51.074;3.788;2023-05-29T08:19:09;19.60;99.80
27226;DHT22;14732;51.074;3.788;2023-05-29T08:21:35;19.90;99.90
27226;DHT22;14732;51.074;3.788;2023-05-29T08:24:03;19.80;99.60
27226;DHT22;14732;51.074;3.788;2023-05-29T08:26:32;20.50;99.20
27226;DHT22;14732;51.074;3.788;2023-05-29T08:28:59;20.80;99.00
27226;DHT22;14732;51.074;3.788;2023-05-29T08:31:25;20.80;98.30
27226;DHT22;14732;51.074;3.788;2023-05-29T08:33:51;21.70;98.60
27226;DHT22;14732;51.074;3.788;2023-05-29T08:36:17;23.20;96.70
27226;DHT22;14732;51.074;3.788;2023-05-29T08:38:43;24.60;93.90
27226;DHT22;14732;51.074;3.788;2023-05-29T08:41:10;25.00;91.80
27226;DHT22;14732;51.074;3.788;2023-05-29T08:43:37;25.30;91.20
27226;DHT22;14732;51.074;3.788;2023-05-29T08:46:06;26.30;90.70
27226;DHT22;14732;51.074;3.788;2023-05-29T08:48:33;28.50;87.90
27226;DHT22;14732;51.074;3.788;2023-05-29T08:51:02;30.50;81.30
27226;DHT22;14732;51.074;3.788;2023-05-29T08:53:29;31.80;75.90
27226;DHT22;14732;51.074;3.788;2023-05-29T08:55:57;32.70;71.40
27226;DHT22;14732;51.074;3.788;2023-05-29T08:58:23;33.90;67.60
27226;DHT22;14732;51.074;3.788;2023-05-29T09:00:50;35.20;63.30
27226;DHT22;14732;51.074;3.788;2023-05-29T09:03:16;35.20;58.70
27226;DHT22;14732;51.074;3.788;2023-05-29T09:05:43;35.10;59.70
27226;DHT22;14732;51.074;3.788;2023-05-29T09:08:10;35.80;58.10
27226;DHT22;14732;51.074;3.788;2023-05-29T09:10:39;35.50;57.50
27226;DHT22;14732;51.074;3.788;2023-05-29T09:13:05;35.10;57.40
27226;DHT22;14732;51.074;3.788;2023-05-29T09:15:31;35.40;55.90
27226;DHT22;14732;51.074;3.788;2023-05-29T09:17:57;34.60;55.30
27226;DHT22;14732;51.074;3.788;2023-05-29T09:20:24;33.90;57.60
27226;DHT22;14732;51.074;3.788;2023-05-29T09:23:01;33.00;59.00
27226;DHT22;14732;51.074;3.788;2023-05-29T09:25:30;31.70;61.70
27226;DHT22;14732;51.074;3.788;2023-05-29T09:28:02;31.30;60.60
27226;DHT22;14732;51.074;3.788;2023-05-29T09:32:59;28.60;65.50
27226;DHT22;14732;51.074;3.788;2023-05-29T09:35:25;25.70;71.40
27226;DHT22;14732;51.074;3.788;2023-05-29T09:37:52;25.10;74.50
27226;DHT22;14732;51.074;3.788;2023-05-29T09:40:18;24.30;74.40
27226;DHT22;14732;51.074;3.788;2023-05-29T09:42:43;23.90;76.80
27226;DHT22;14732;51.074;3.788;2023-05-29T09:45:09;23.60;80.20
27226;DHT22;14732;51.074;3.788;2023-05-29T09:47:35;23.70;78.90
27226;DHT22;14732;51.074;3.788;2023-05-29T09:50:01;23.40;81.80
27226;DHT22;14732;51.074;3.788;2023-05-29T09:52:29;23.40;80.80
27226;DHT22;14732;51.074;3.788;2023-05-29T09:54:55;23.40;80.20
27226;DHT22;14732;51.074;3.788;2023-05-29T09:57:23;23.00;81.30
27226;DHT22;14732;51.074;3.788;2023-05-29T09:59:52;22.60;84.80
27226;DHT22;14732;51.074;3.788;2023-05-29T10:02:18;22.60;83.00
27226;DHT22;14732;51.074;3.788;2023-05-29T10:04:44;22.20;83.80
27226;DHT22;14732;51.074;3.788;2023-05-29T10:07:25;22.20;84.80
27226;DHT22;14732;51.074;3.788;2023-05-29T10:09:59;22.30;85.50
27226;DHT22;14732;51.074;3.788;2023-05-29T10:12:26;22.20;87.30
27226;DHT22;14732;51.074;3.788;2023-05-29T10:14:56;22.10;86.80
27226;DHT22;14732;51.074;3.788;2023-05-29T10:17:26;22.20;86.60
27226;DHT22;14732;51.074;3.788;2023-05-29T10:19:56;22.30;88.10
27226;DHT22;14732;51.074;3.788;2023-05-29T10:22:25;22.20;87.50
27226;DHT22;14732;51.074;3.788;2023-05-29T10:24:52;21.80;87.70
27226;DHT22;14732;51.074;3.788;2023-05-29T10:27:18;21.40;91.70
27226;DHT22;14732;51.074;3.788;2023-05-29T10:32:36;21.80;90.40
27226;DHT22;14732;51.074;3.788;2023-05-29T10:35:11;22.10;90.40
27226;DHT22;14732;51.074;3.788;2023-05-29T10:37:59;21.80;90.10
27226;DHT22;14732;51.074;3.788;2023-05-29T10:40:28;22.20;90.10
27226;DHT22;14732;51.074;3.788;2023-05-29T10:42:54;22.30;90.00
27226;DHT22;14732;51.074;3.788;2023-05-29T10:53:08;22.60;89.40
27226;DHT22;14732;51.074;3.788;2023-05-29T10:55:36;22.50;90.00
27226;DHT22;14732;51.074;3.788;2023-05-29T10:58:07;22.40;87.70
27226;DHT22;14732;51.074;3.788;2023-05-29T11:00:33;22.40;90.10
27226;DHT22;14732;51.074;3.788;2023-05-29T11:03:03;22.50;88.80
27226;DHT22;14732;51.074;3.788;2023-05-29T11:05:29;22.60;90.40
27226;DHT22;14732;51.074;3.788;2023-05-29T11:07:57;22.60;88.40
27226;DHT22;14732;51.074;3.788;2023-05-29T11:13:36;22.20;90.50
27226;DHT22;14732;51.074;3.788;2023-05-29T11:16:05;22.10;90.40
27226;DHT22;14732;51.074;3.788;2023-05-29T11:18:31;22.30;90.90
27226;DHT22;14732;51.074;3.788;2023-05-29T11:21:00;22.60;91.80
27226;DHT22;14732;51.074;3.788;2023-05-29T11:23:31;22.60;89.60
27226;DHT22;14732;51.074;3.788;2023-05-29T11:25:59;22.30;91.30
27226;DHT22;14732;51.074;3.788;2023-05-29T11:28:26;22.40;90.50
27226;DHT22;14732;51.074;3.788;2023-05-29T11:30:53;22.50;90.60
27226;DHT22;14732;51.074;3.788;2023-05-29T11:33:26;22.50;90.30
27226;DHT22;14732;51.074;3.788;2023-05-29T11:35:57;22.30;90.80
27226;DHT22;14732;51.074;3.788;2023-05-29T11:38:25;22.20;91.10
27226;DHT22;14732;51.074;3.788;2023-05-29T11:40:53;22.30;91.60
27226;DHT22;14732;51.074;3.788;2023-05-29T11:43:19;22.50;91.30
27226;DHT22;14732;51.074;3.788;2023-05-29T11:45:45;22.90;91.00
27226;DHT22;14732;51.074;3.788;2023-05-29T11:48:11;22.80;89.50
27226;DHT22;14732;51.074;3.788;2023-05-29T11:50:38;22.80;90.30
27226;DHT22;14732;51.074;3.788;2023-05-29T11:53:06;23.10;90.20
27226;DHT22;14732;51.074;3.788;2023-05-29T11:55:32;23.30;90.30
27226;DHT22;14732;51.074;3.788;2023-05-29T11:57:59;23.30;89.10
27226;DHT22;14732;51.074;3.788;2023-05-29T12:00:26;23.20;90.80
27226;DHT22;14732;51.074;3.788;2023-05-29T12:02:58;23.00;90.50
27226;DHT22;14732;51.074;3.788;2023-05-29T12:05:24;23.20;88.80
27226;DHT22;14732;51.074;3.788;2023-05-29T12:07:54;23.20;89.10
27226;DHT22;14732;51.074;3.788;2023-05-29T12:10:23;22.50;90.70
27226;DHT22;14732;51.074;3.788;2023-05-29T12:12:58;22.50;90.50
27226;DHT22;14732;51.074;3.788;2023-05-29T12:15:24;22.70;91.40
27226;DHT22;14732;51.074;3.788;2023-05-29T12:17:50;23.00;91.40
27226;DHT22;14732;51.074;3.788;2023-05-29T12:20:17;23.20;89.50
27226;DHT22;14732;51.074;3.788;2023-05-29T12:22:44;23.40;90.30
27226;DHT22;14732;51.074;3.788;2023-05-29T12:25:12;23.10;88.30
27226;DHT22;14732;51.074;3.788;2023-05-29T12:27:39;23.10;89.10
27226;DHT22;14732;51.074;3.788;2023-05-29T12:30:11;23.00;90.00
27226;DHT22;14732;51.074;3.788;2023-05-29T12:32:41;22.80;91.50
27226;DHT22;14732;51.074;3.788;2023-05-29T12:35:12;23.10;90.60
27226;DHT22;14732;51.074;3.788;2023-05-29T12:38:01;22.90;92.00
27226;DHT22;14732;51.074;3.788;2023-05-29T12:40:29;22.90;91.30
27226;DHT22;14732;51.074;3.788;2023-05-29T12:43:08;22.90;90.30
27226;DHT22;14732;51.074;3.788;2023-05-29T12:45:36;23.00;89.50
27226;DHT22;14732;51.074;3.788;2023-05-29T12:48:04;23.00;89.70
27226;DHT22;14732;51.074;3.788;2023-05-29T12:50:35;22.90;90.10
27226;DHT22;14732;51.074;3.788;2023-05-29T12:55:31;22.80;90.70
27226;DHT22;14732;51.074;3.788;2023-05-29T12:58:10;22.90;90.60
27226;DHT22;14732;51.074;3.788;2023-05-29T13:00:41;23.10;91.00
27226;DHT22;14732;51.074;3.788;2023-05-29T13:03:08;23.20;91.10
27226;DHT22;14732;51.074;3.788;2023-05-29T13:05:34;23.50;88.20
27226;DHT22;14732;51.074;3.788;2023-05-29T13:08:01;23.40;88.80
27226;DHT22;14732;51.074;3.788;2023-05-29T13:10:27;23.20;88.30
27226;DHT22;14732;51.074;3.788;2023-05-29T13:12:54;23.50;87.40
27226;DHT22;14732;51.074;3.788;2023-05-29T13:15:22;23.60;87.00
27226;DHT22;14732;51.074;3.788;2023-05-29T13:17:48;23.50;85.80
27226;DHT22;14732;51.074;3.788;2023-05-29T13:20:14;23.40;86.70
27226;DHT22;14732;51.074;3.788;2023-05-29T13:22:42;23.30;85.60
27226;DHT22;14732;51.074;3.788;2023-05-29T13:25:11;23.50;85.40
27226;DHT22;14732;51.074;3.788;2023-05-29T13:27:43;23.60;86.30
27226;DHT22;14732;51.074;3.788;2023-05-29T13:30:10;23.20;85.70
27226;DHT22;14732;51.074;3.788;2023-05-29T13:32:35;23.10;85.00
27226;DHT22;14732;51.074;3.788;2023-05-29T13:35:02;23.00;86.20
27226;DHT22;14732;51.074;3.788;2023-05-29T13:37:28;22.50;88.50
27226;DHT22;14732;51.074;3.788;2023-05-29T13:39:54;22.60;88.10
27226;DHT22;14732;51.074;3.788;2023-05-29T13:42:21;22.60;87.00
27226;DHT22;14732;51.074;3.788;2023-05-29T13:44:50;22.10;90.50
27226;DHT22;14732;51.074;3.788;2023-05-29T13:47:16;22.30;88.60
27226;DHT22;14732;51.074;3.788;2023-05-29T13:49:42;22.50;84.60
27226;DHT22;14732;51.074;3.788;2023-05-29T13:52:08;22.70;87.30
27226;DHT22;14732;51.074;3.788;2023-05-29T13:54:33;22.70;84.10
27226;DHT22;14732;51.074;3.788;2023-05-29T13:57:03;23.10;86.10
27226;DHT22;14732;51.074;3.788;2023-05-29T13:59:32;23.40;84.80
27226;DHT22;14732;51.074;3.788;2023-05-29T14:01:58;23.40;85.20
27226;DHT22;14732;51.074;3.788;2023-05-29T14:04:24;23.10;84.10
27226;DHT22;14732;51.074;3.788;2023-05-29T14:06:50;23.10;83.10
27226;DHT22;14732;51.074;3.788;2023-05-29T14:09:16;23.20;83.00
27226;DHT22;14732;51.074;3.788;2023-05-29T14:11:42;23.20;83.30
27226;DHT22;14732;51.074;3.788;2023-05-29T14:14:08;23.20;84.60
27226;DHT22;14732;51.074;3.788;2023-05-29T14:16:33;23.10;86.10
27226;DHT22;14732;51.074;3.788;2023-05-29T14:19:00;23.00;85.50
27226;DHT22;14732;51.074;3.788;2023-05-29T14:21:25;23.20;85.80
27226;DHT22;14732;51.074;3.788;2023-05-29T14:23:51;23.10;84.50
27226;DHT22;14732;51.074;3.788;2023-05-29T14:26:17;23.00;85.30
27226;DHT22;14732;51.074;3.788;2023-05-29T14:28:43;23.10;85.00
27226;DHT22;14732;51.074;3.788;2023-05-29T14:31:09;23.10;86.10
27226;DHT22;14732;51.074;3.788;2023-05-29T14:33:34;23.10;87.00
27226;DHT22;14732;51.074;3.788;2023-05-29T14:36:02;23.20;87.20
27226;DHT22;14732;51.074;3.788;2023-05-29T14:38:28;23.40;84.60
27226;DHT22;14732;51.074;3.788;2023-05-29T14:40:53;23.30;86.50
27226;DHT22;14732;51.074;3.788;2023-05-29T14:43:19;23.20;85.70
27226;DHT22;14732;51.074;3.788;2023-05-29T14:45:45;23.20;85.90
27226;DHT22;14732;51.074;3.788;2023-05-29T14:48:10;23.10;86.00
27226;DHT22;14732;51.074;3.788;2023-05-29T14:50:36;23.00;85.00
27226;DHT22;14732;51.074;3.788;2023-05-29T14:53:02;23.10;86.00
27226;DHT22;14732;51.074;3.788;2023-05-29T14:55:28;23.30;85.70
27226;DHT22;14732;51.074;3.788;2023-05-29T14:57:56;23.30;86.10
27226;DHT22;14732;51.074;3.788;2023-05-29T15:00:21;23.30;86.30
27226;DHT22;14732;51.074;3.788;2023-05-29T15:02:47;23.20;87.80
27226;DHT22;14732;51.074;3.788;2023-05-29T15:05:13;23.10;87.50
27226;DHT22;14732;51.074;3.788;2023-05-29T15:07:38;23.10;87.70
27226;DHT22;14732;51.074;3.788;2023-05-29T15:10:04;23.20;86.80
27226;DHT22;14732;51.074;3.788;2023-05-29T15:12:31;23.10;86.60
27226;DHT22;14732;51.074;3.788;2023-05-29T15:14:57;23.00;86.10
27226;DHT22;14732;51.074;3.788;2023-05-29T15:17:23;23.00;87.40
27226;DHT22;14732;51.074;3.788;2023-05-29T15:19:48;23.00;87.60
27226;DHT22;14732;51.074;3.788;2023-05-29T15:22:14;23.00;86.60
27226;DHT22;14732;51.074;3.788;2023-05-29T15:24:40;22.80;86.80
27226;DHT22;14732;51.074;3.788;2023-05-29T15:27:06;22.70;87.30
27226;DHT22;14732;51.074;3.788;2023-05-29T15:29:36;22.60;88.10
27226;DHT22;14732;51.074;3.788;2023-05-29T15:32:02;22.70;89.00
27226;DHT22;14732;51.074;3.788;2023-05-29T15:34:28;22.50;89.60
27226;DHT22;14732;51.074;3.788;2023-05-29T15:36:54;22.60;88.30
27226;DHT22;14732;51.074;3.788;2023-05-29T15:39:20;22.20;89.10
27226;DHT22;14732;51.074;3.788;2023-05-29T15:41:46;22.10;89.70
27226;DHT22;14732;51.074;3.788;2023-05-29T15:44:12;22.00;89.80
27226;DHT22;14732;51.074;3.788;2023-05-29T15:46:37;22.00;89.00
27226;DHT22;14732;51.074;3.788;2023-05-29T15:49:03;21.80;89.40
27226;DHT22;14732;51.074;3.788;2023-05-29T15:51:29;21.70;90.10